Gunnison, Colorado
Current Conditions -  °F | °C
As of 3:55 PM on Wednesday 26 Nov 2014 (Local Time) from KGUC Reporting Station
Clear Clear  
Wind Chill: 36°   Ceiling: Unl
Heat Index: 43°   Visibility: 10mi
Dew Point: 25°   Wind: 14mph
Humidity: 49%   Direction: 250°WSW
Pressure: 30.38"   Gusts: 20mph
Location:  38.55°N, 106.92°W
Report Text: KGUC 262255Z AUTO 25012G17KT 10SM CLR 06/M04 A3038 RMK AO1
Loading
Personal Weather Stations






























Interactive Weather Map New forecast layout! Learn more

10-Day Weather Forecast

Advertisements
Track Severe Weather on mobile